createdAt,value
2018-08-24T00:00:56.359Z,1004.32
2018-08-24T00:01:56.342Z,1004.33
2018-08-24T00:02:56.334Z,1004.38
2018-08-24T00:03:56.344Z,1004.37
2018-08-24T00:04:56.298Z,1004.32
2018-08-24T00:05:56.284Z,1004.37
2018-08-24T00:06:56.271Z,1004.28
2018-08-24T00:07:56.255Z,1004.30
2018-08-24T00:08:56.243Z,1004.29
2018-08-24T00:09:56.228Z,1004.25
2018-08-24T00:10:56.216Z,1004.27
2018-08-24T00:11:56.200Z,1004.27
2018-08-24T00:12:56.186Z,1004.30
2018-08-24T00:13:56.173Z,1004.28
2018-08-24T00:14:56.158Z,1004.31
2018-08-24T00:15:56.144Z,1004.26
2018-08-24T00:16:56.130Z,1004.24
2018-08-24T00:17:56.117Z,1004.16
2018-08-24T00:18:56.101Z,1004.16
2018-08-24T00:19:56.088Z,1004.18
2018-08-24T00:20:56.072Z,1004.08
2018-08-24T00:21:56.058Z,1004.03
2018-08-24T00:22:56.056Z,1003.96
2018-08-24T00:23:56.032Z,1003.98
2018-08-24T00:24:56.017Z,1004.00
2018-08-24T00:25:56.003Z,1003.99
2018-08-24T00:26:55.988Z,1004.04
2018-08-24T00:27:55.978Z,1004.06
2018-08-24T00:28:55.961Z,1004.05
2018-08-24T00:29:55.946Z,1004.07
2018-08-24T00:30:55.941Z,1004.13
2018-08-24T00:31:55.920Z,1004.17
2018-08-24T00:32:55.905Z,1004.21
2018-08-24T00:33:55.890Z,1004.19
2018-08-24T00:34:55.877Z,1004.21
2018-08-24T00:35:55.862Z,1004.22
2018-08-24T00:36:55.855Z,1004.16
2018-08-24T00:37:55.832Z,1004.18
2018-08-24T00:38:55.820Z,1004.17
2018-08-24T00:39:55.805Z,1004.16
2018-08-24T00:40:55.791Z,1004.20
2018-08-24T00:41:55.781Z,1004.18
2018-08-24T00:42:55.763Z,1004.19
2018-08-24T00:43:55.749Z,1004.15
2018-08-24T00:44:55.734Z,1004.15
2018-08-24T00:45:55.722Z,1004.12
2018-08-24T00:46:55.707Z,1004.09
2018-08-24T00:47:55.693Z,1004.14
2018-08-24T00:48:55.687Z,1004.12
2018-08-24T00:49:55.664Z,1004.17
2018-08-24T00:50:55.652Z,1004.17
2018-08-24T00:51:55.637Z,1004.12
2018-08-24T00:52:55.622Z,1004.11
2018-08-24T00:53:55.611Z,1004.11
2018-08-24T00:54:55.598Z,1004.11
2018-08-24T00:55:55.588Z,1004.11
2018-08-24T00:56:55.569Z,1004.12
2018-08-24T00:57:55.553Z,1004.11
2018-08-24T00:58:55.537Z,1004.10
2018-08-24T00:59:55.524Z,1004.07
2018-08-24T01:00:55.514Z,1004.09
2018-08-24T01:01:55.495Z,1004.12
2018-08-24T01:02:55.486Z,1004.11
2018-08-24T01:03:56.681Z,1004.12
2018-08-24T01:04:55.458Z,1004.08
2018-08-24T01:05:55.454Z,1004.10
2018-08-24T01:06:55.437Z,1004.08
2018-08-24T01:07:55.413Z,1004.08
2018-08-24T01:08:55.396Z,1004.10
2018-08-24T01:09:55.383Z,1004.08
2018-08-24T01:10:55.367Z,1004.10
2018-08-24T01:11:55.354Z,1004.11
2018-08-24T01:12:55.355Z,1004.12
2018-08-24T01:13:55.326Z,1004.13
2018-08-24T01:14:55.312Z,1004.13
2018-08-24T01:15:55.297Z,1004.09
2018-08-24T01:16:55.281Z,1004.09
2018-08-24T01:17:55.268Z,1004.08
2018-08-24T01:18:55.256Z,1004.09
2018-08-24T01:19:55.390Z,1004.09
2018-08-24T01:20:55.227Z,1004.11
2018-08-24T01:21:55.213Z,1004.06
2018-08-24T01:22:55.198Z,1003.99
2018-08-24T01:23:55.183Z,1004.03
2018-08-24T01:24:55.172Z,1004.01
2018-08-24T01:25:55.154Z,1004.01
2018-08-24T01:26:55.140Z,1004.01
2018-08-24T01:27:55.127Z,1003.99
2018-08-24T01:28:55.112Z,1003.98
2018-08-24T01:29:55.099Z,1004.01
2018-08-24T01:30:55.083Z,1004.01
2018-08-24T01:31:55.071Z,1003.97
2018-08-24T01:32:55.055Z,1003.96
2018-08-24T01:33:55.042Z,1003.96
2018-08-24T01:34:55.029Z,1003.96
2018-08-24T01:35:55.012Z,1003.93
2018-08-24T01:36:54.998Z,1003.95
2018-08-24T01:37:54.984Z,1003.94
2018-08-24T01:38:54.971Z,1003.95
2018-08-24T01:39:54.955Z,1003.91
2018-08-24T01:40:54.940Z,1003.94
2018-08-24T01:41:54.929Z,1003.93
2018-08-24T01:42:54.913Z,1003.91
2018-08-24T01:43:54.899Z,1003.87
2018-08-24T01:44:54.884Z,1003.90
2018-08-24T01:45:54.872Z,1003.88
2018-08-24T01:46:54.908Z,1003.89
2018-08-24T01:47:54.841Z,1003.86
2018-08-24T01:48:54.828Z,1003.88
2018-08-24T01:49:54.812Z,1003.88
2018-08-24T01:50:54.798Z,1003.91
2018-08-24T01:51:54.783Z,1003.88
2018-08-24T01:52:54.768Z,1003.90
2018-08-24T01:53:54.755Z,1003.90
2018-08-24T01:54:54.741Z,1003.92
2018-08-24T01:55:54.725Z,1003.91
2018-08-24T01:56:54.712Z,1003.97
2018-08-24T01:57:54.702Z,1004.05
2018-08-24T01:58:54.687Z,1003.93
2018-08-24T01:59:54.675Z,1003.95
2018-08-24T02:00:54.653Z,1003.93
2018-08-24T02:01:54.639Z,1003.91
2018-08-24T02:02:54.624Z,1003.95
2018-08-24T02:03:54.609Z,1003.92
2018-08-24T02:04:54.595Z,1003.93
2018-08-24T02:05:54.582Z,1003.92
2018-08-24T02:06:54.567Z,1003.88
2018-08-24T02:07:54.556Z,1003.91
2018-08-24T02:08:54.538Z,1003.95
2018-08-24T02:09:54.523Z,1003.98
2018-08-24T02:10:54.509Z,1003.95
2018-08-24T02:11:54.493Z,1003.96
2018-08-24T02:12:54.478Z,1003.96
2018-08-24T02:13:54.468Z,1003.97
2018-08-24T02:14:54.451Z,1004.01
2018-08-24T02:15:54.437Z,1004.02
2018-08-24T02:16:54.421Z,1004.03
2018-08-24T02:17:54.407Z,1004.04
2018-08-24T02:18:54.393Z,1004.05
2018-08-24T02:19:54.378Z,1003.96
2018-08-24T02:20:54.366Z,1003.97
2018-08-24T02:21:54.349Z,1004.02
2018-08-24T02:22:54.335Z,1003.98
2018-08-24T02:23:54.320Z,1003.93
2018-08-24T02:24:54.305Z,1003.95
2018-08-24T02:25:54.293Z,1003.94
2018-08-24T02:26:54.277Z,1003.92
2018-08-24T02:27:54.260Z,1003.94
2018-08-24T02:28:54.248Z,1003.91
2018-08-24T02:29:54.233Z,1003.91
2018-08-24T02:30:54.217Z,1003.94
2018-08-24T02:31:54.206Z,1003.96
2018-08-24T02:32:54.237Z,1003.90
2018-08-24T02:33:54.172Z,1003.90
2018-08-24T02:34:54.160Z,1003.89
2018-08-24T02:35:54.144Z,1003.90
2018-08-24T02:36:54.129Z,1003.91
2018-08-24T02:37:54.124Z,1003.89
2018-08-24T02:38:54.099Z,1003.91
2018-08-24T02:39:54.096Z,1003.91
2018-08-24T02:40:54.073Z,1003.91
2018-08-24T02:41:54.057Z,1003.93
2018-08-24T02:42:54.043Z,1003.94
2018-08-24T02:43:54.027Z,1003.92
2018-08-24T02:44:54.053Z,1003.94
2018-08-24T02:45:53.996Z,1003.95
2018-08-24T02:46:53.980Z,1003.98
2018-08-24T02:47:53.965Z,1004.02
2018-08-24T02:48:53.952Z,1004.00
2018-08-24T02:49:53.936Z,1003.99
2018-08-24T02:50:53.922Z,1003.98
2018-08-24T02:51:53.906Z,1003.98
2018-08-24T02:52:53.891Z,1003.97
2018-08-24T02:53:53.877Z,1003.91
2018-08-24T02:54:53.863Z,1003.92
2018-08-24T02:55:53.846Z,1003.90
2018-08-24T02:56:53.833Z,1003.88
2018-08-24T02:57:53.817Z,1003.89
2018-08-24T02:58:53.806Z,1003.91
2018-08-24T02:59:53.787Z,1003.92
2018-08-24T03:00:53.782Z,1003.94
2018-08-24T03:01:53.758Z,1003.91
2018-08-24T03:02:53.742Z,1003.92
2018-08-24T03:03:53.725Z,1003.91
2018-08-24T03:04:53.712Z,1003.89
2018-08-24T03:05:53.701Z,1003.88
2018-08-24T03:06:53.683Z,1003.88
2018-08-24T03:07:53.674Z,1003.89
2018-08-24T03:08:53.653Z,1003.88
2018-08-24T03:09:53.636Z,1003.87
2018-08-24T03:10:53.622Z,1003.90
2018-08-24T03:11:53.611Z,1003.86
2018-08-24T03:12:53.591Z,1003.85
2018-08-24T03:13:53.577Z,1003.88
2018-08-24T03:14:53.560Z,1003.89
2018-08-24T03:15:53.595Z,1003.86
2018-08-24T03:16:53.529Z,1003.94
2018-08-24T03:17:53.516Z,1003.92
2018-08-24T03:18:53.501Z,1003.92
2018-08-24T03:19:53.483Z,1003.89
2018-08-24T03:20:53.470Z,1003.85
2018-08-24T03:21:53.453Z,1003.83
2018-08-24T03:22:53.442Z,1003.82
2018-08-24T03:23:53.421Z,1003.87
2018-08-24T03:24:53.412Z,1003.88
2018-08-24T03:25:53.401Z,1003.92
2018-08-24T03:26:53.378Z,1003.90
2018-08-24T03:27:53.364Z,1003.89
2018-08-24T03:28:53.347Z,1003.91
2018-08-24T03:29:53.332Z,1003.88
2018-08-24T03:30:53.318Z,1003.87
2018-08-24T03:31:53.308Z,1003.90
2018-08-24T03:32:53.286Z,1003.86
2018-08-24T03:33:53.287Z,1003.82
2018-08-24T03:34:53.257Z,1003.84
2018-08-24T03:35:53.241Z,1003.85
2018-08-24T03:36:53.225Z,1003.85
2018-08-24T03:37:53.213Z,1003.92
2018-08-24T03:38:53.198Z,1003.92
2018-08-24T03:39:53.185Z,1003.90
2018-08-24T03:40:53.167Z,1003.86
2018-08-24T03:41:53.151Z,1003.88
2018-08-24T03:42:53.138Z,1003.85
2018-08-24T03:43:53.120Z,1003.84
2018-08-24T03:44:53.106Z,1003.84
2018-08-24T03:45:53.185Z,1003.82
2018-08-24T03:46:53.075Z,1003.86
2018-08-24T03:47:53.059Z,1003.94
2018-08-24T03:48:53.044Z,1003.91
2018-08-24T03:49:53.037Z,1003.91
2018-08-24T03:50:53.016Z,1003.98
2018-08-24T03:51:52.999Z,1003.98
2018-08-24T03:52:53.105Z,1004.01
2018-08-24T03:53:52.968Z,1003.97
2018-08-24T03:54:52.952Z,1004.02
2018-08-24T03:55:52.938Z,1004.02
2018-08-24T03:56:52.921Z,1004.05
2018-08-24T03:57:52.906Z,1004.01
2018-08-24T03:58:52.891Z,1004.00
2018-08-24T03:59:52.876Z,1004.04
2018-08-24T04:00:52.866Z,1004.04
2018-08-24T04:01:52.848Z,1004.09
2018-08-24T04:02:52.832Z,1004.10
2018-08-24T04:03:52.814Z,1004.04
2018-08-24T04:04:52.809Z,1004.11
2018-08-24T04:05:52.790Z,1004.02
2018-08-24T04:06:52.770Z,1004.01
2018-08-24T04:07:52.753Z,1003.99
2018-08-24T04:08:52.737Z,1004.00
2018-08-24T04:09:52.724Z,1003.98
2018-08-24T04:10:52.708Z,1004.04
2018-08-24T04:11:52.698Z,1004.12
2018-08-24T04:12:52.733Z,1004.14
2018-08-24T04:13:52.661Z,1004.13
2018-08-24T04:14:52.647Z,1004.18
2018-08-24T04:15:52.633Z,1004.19
2018-08-24T04:16:52.620Z,1004.16
2018-08-24T04:17:52.608Z,1004.16
2018-08-24T04:18:52.583Z,1004.16
2018-08-24T04:19:52.567Z,1004.15
2018-08-24T04:20:52.558Z,1004.20
2018-08-24T04:21:52.538Z,1004.22
2018-08-24T04:22:52.524Z,1004.21
2018-08-24T04:23:52.508Z,1004.25
2018-08-24T04:24:52.527Z,1004.21
2018-08-24T04:25:52.508Z,1004.22
2018-08-24T04:26:52.472Z,1004.25
2018-08-24T04:27:52.446Z,1004.20
2018-08-24T04:28:52.430Z,1004.22
2018-08-24T04:29:52.417Z,1004.22
2018-08-24T04:30:52.409Z,1004.21
2018-08-24T04:31:52.386Z,1004.22
2018-08-24T04:32:52.371Z,1004.21
2018-08-24T04:33:52.355Z,1004.23
2018-08-24T04:34:52.371Z,1004.24
2018-08-24T04:35:52.325Z,1004.23
2018-08-24T04:36:52.348Z,1004.23
2018-08-24T04:37:52.293Z,1004.25
2018-08-24T04:38:52.279Z,1004.24
2018-08-24T04:39:52.261Z,1004.23
2018-08-24T04:40:52.246Z,1004.26
2018-08-24T04:41:52.233Z,1004.24
2018-08-24T04:42:52.217Z,1004.19
2018-08-24T04:43:52.200Z,1004.21
2018-08-24T04:44:52.186Z,1004.23
2018-08-24T04:45:52.174Z,1004.25
2018-08-24T04:46:52.160Z,1004.26
2018-08-24T04:47:52.148Z,1004.25
2018-08-24T04:48:52.124Z,1004.28
2018-08-24T04:49:52.111Z,1004.25
2018-08-24T04:50:52.093Z,1004.25
2018-08-24T04:51:52.077Z,1004.23
2018-08-24T04:52:52.064Z,1004.19
2018-08-24T04:53:52.047Z,1004.22
2018-08-24T04:54:52.035Z,1004.22
2018-08-24T04:55:52.015Z,1004.24
2018-08-24T04:56:52.005Z,1004.21
2018-08-24T04:57:51.986Z,1004.19
2018-08-24T04:58:51.970Z,1004.21
2018-08-24T04:59:51.958Z,1004.21
2018-08-24T05:00:51.942Z,1004.20
2018-08-24T05:01:51.933Z,1004.19
2018-08-24T05:02:51.910Z,1004.18
2018-08-24T05:03:51.896Z,1004.15
2018-08-24T05:04:51.880Z,1004.15
2018-08-24T05:05:51.985Z,1004.12
2018-08-24T05:06:51.851Z,1004.15
2018-08-24T05:07:51.833Z,1004.14
2018-08-24T05:08:51.818Z,1004.15
2018-08-24T05:09:51.801Z,1004.08
2018-08-24T05:10:51.789Z,1004.10
2018-08-24T05:11:51.773Z,1004.10
2018-08-24T05:12:51.761Z,1004.10
2018-08-24T05:13:51.743Z,1004.14
2018-08-24T05:14:51.728Z,1004.15
2018-08-24T05:15:51.711Z,1004.13
2018-08-24T05:16:51.696Z,1004.15
2018-08-24T05:17:51.680Z,1004.15
2018-08-24T05:18:51.664Z,1004.19
2018-08-24T05:19:51.648Z,1004.17
2018-08-24T05:20:51.635Z,1004.20
2018-08-24T05:21:51.620Z,1004.16
2018-08-24T05:22:51.605Z,1004.16
2018-08-24T05:23:51.587Z,1004.18
2018-08-24T05:24:51.678Z,1004.18
2018-08-24T05:25:51.559Z,1004.16
2018-08-24T05:26:51.549Z,1004.20
2018-08-24T05:27:51.527Z,1004.20
2018-08-24T05:28:51.513Z,1004.18
2018-08-24T05:29:51.505Z,1004.20
2018-08-24T05:30:51.516Z,1004.19
2018-08-24T05:31:51.467Z,1004.16
2018-08-24T05:32:51.456Z,1004.15
2018-08-24T05:33:51.439Z,1004.16
2018-08-24T05:34:51.423Z,1004.14
2018-08-24T05:35:51.407Z,1004.08
2018-08-24T05:36:51.391Z,1004.15
2018-08-24T05:37:51.376Z,1004.16
2018-08-24T05:38:51.369Z,1004.16
2018-08-24T05:39:51.344Z,1004.18
2018-08-24T05:40:51.329Z,1004.18
2018-08-24T05:41:51.315Z,1004.20
2018-08-24T05:42:51.309Z,1004.22
2018-08-24T05:43:51.284Z,1004.23
2018-08-24T05:44:51.276Z,1004.23
2018-08-24T05:45:51.254Z,1004.21
2018-08-24T05:46:51.240Z,1004.22
2018-08-24T05:47:51.225Z,1004.24
2018-08-24T05:48:51.273Z,1004.24
2018-08-24T05:49:51.196Z,1004.24
2018-08-24T05:50:51.181Z,1004.27
2018-08-24T05:51:51.164Z,1004.26
2018-08-24T05:52:51.155Z,1004.23
2018-08-24T05:53:51.135Z,1004.26
2018-08-24T05:54:51.118Z,1004.21
2018-08-24T05:55:51.103Z,1004.22
2018-08-24T05:56:51.088Z,1004.23
2018-08-24T05:57:51.074Z,1004.23
2018-08-24T05:58:51.058Z,1004.19
2018-08-24T05:59:51.042Z,1004.22
2018-08-24T06:00:51.038Z,1004.19
2018-08-24T06:01:51.014Z,1004.16
2018-08-24T06:02:51.000Z,1004.21
2018-08-24T06:03:50.987Z,1004.20
2018-08-24T06:04:50.972Z,1004.16
2018-08-24T06:05:50.995Z,1004.19
2018-08-24T06:06:50.947Z,1004.16
2018-08-24T06:07:50.928Z,1004.17
2018-08-24T06:08:50.966Z,1004.19
2018-08-24T06:09:50.894Z,1004.16
2018-08-24T06:10:50.880Z,1004.21
2018-08-24T06:11:50.865Z,1004.17
2018-08-24T06:12:50.850Z,1004.16
2018-08-24T06:13:50.844Z,1004.15
2018-08-24T06:14:50.895Z,1004.22
2018-08-24T06:15:50.882Z,1004.25
2018-08-24T06:16:50.901Z,1004.24
2018-08-24T06:17:50.818Z,1004.26
2018-08-24T06:18:50.763Z,1004.26
2018-08-24T06:19:50.754Z,1004.27
2018-08-24T06:20:50.742Z,1004.29
2018-08-24T06:21:50.724Z,1004.32
2018-08-24T06:22:50.706Z,1004.32
2018-08-24T06:23:50.688Z,1004.32
2018-08-24T06:24:50.677Z,1004.32
2018-08-24T06:25:50.659Z,1004.29
2018-08-24T06:26:50.646Z,1004.32
2018-08-24T06:27:50.629Z,1004.35
2018-08-24T06:28:50.617Z,1004.40
2018-08-24T06:29:50.604Z,1004.39
2018-08-24T06:30:50.585Z,1004.42
2018-08-24T06:31:50.569Z,1004.39
2018-08-24T06:32:50.566Z,1004.41
2018-08-24T06:33:50.540Z,1004.42
2018-08-24T06:34:50.527Z,1004.39
2018-08-24T06:35:50.512Z,1004.46
2018-08-24T06:36:50.530Z,1004.46
2018-08-24T06:37:50.482Z,1004.46
2018-08-24T06:38:50.467Z,1004.47
2018-08-24T06:39:50.479Z,1004.49
2018-08-24T06:40:50.437Z,1004.38
2018-08-24T06:41:50.481Z,1004.49
2018-08-24T06:42:50.409Z,1004.47
2018-08-24T06:43:50.392Z,1004.43
2018-08-24T06:44:50.382Z,1004.44
2018-08-24T06:45:50.375Z,1004.40
2018-08-24T06:46:50.348Z,1004.46
2018-08-24T06:47:50.408Z,1004.45
2018-08-24T06:48:50.324Z,1004.48
2018-08-24T06:49:50.314Z,1004.49
2018-08-24T06:50:50.289Z,1004.48
2018-08-24T06:51:50.274Z,1004.49
2018-08-24T06:52:50.260Z,1004.54
2018-08-24T06:53:50.337Z,1004.49
2018-08-24T06:54:50.233Z,1004.48
2018-08-24T06:55:50.216Z,1004.50
2018-08-24T06:56:50.199Z,1004.55
2018-08-24T06:57:50.194Z,1004.62
2018-08-24T06:58:50.177Z,1004.65
2018-08-24T06:59:50.157Z,1004.68
2018-08-24T07:00:50.148Z,1004.67
2018-08-24T07:01:50.127Z,1004.69
2018-08-24T07:02:50.115Z,1004.66
2018-08-24T07:03:50.096Z,1004.64
2018-08-24T07:04:50.083Z,1004.70
2018-08-24T07:05:50.104Z,1004.64
2018-08-24T07:06:50.056Z,1004.60
2018-08-24T07:07:50.041Z,1004.63
2018-08-24T07:08:50.025Z,1004.64
2018-08-24T07:09:50.010Z,1004.63
2018-08-24T07:10:50.006Z,1004.65
2018-08-24T07:11:49.982Z,1004.73
2018-08-24T07:12:49.998Z,1004.71
2018-08-24T07:13:49.965Z,1004.80
2018-08-24T07:14:49.938Z,1004.78
2018-08-24T07:15:49.922Z,1004.78
2018-08-24T07:16:49.908Z,1004.79
2018-08-24T07:17:49.891Z,1004.74
2018-08-24T07:18:49.880Z,1004.75
2018-08-24T07:19:49.866Z,1004.73
2018-08-24T07:20:49.848Z,1004.71
2018-08-24T07:21:49.835Z,1004.71
2018-08-24T07:22:49.821Z,1004.73
2018-08-24T07:23:49.805Z,1004.71
2018-08-24T07:24:49.789Z,1004.75
2018-08-24T07:25:49.775Z,1004.72
2018-08-24T07:26:49.762Z,1004.71
2018-08-24T07:27:49.745Z,1004.67
2018-08-24T07:28:49.731Z,1004.68
2018-08-24T07:29:49.716Z,1004.67
2018-08-24T07:30:49.705Z,1004.68
2018-08-24T07:31:49.688Z,1004.63
2018-08-24T07:32:49.678Z,1004.68
2018-08-24T07:33:49.660Z,1004.69
2018-08-24T07:34:49.643Z,1004.70
2018-08-24T07:35:49.637Z,1004.72
2018-08-24T07:36:49.616Z,1004.80
2018-08-24T07:37:49.601Z,1004.78
2018-08-24T07:38:49.592Z,1004.86
2018-08-24T07:39:49.569Z,1004.85
2018-08-24T07:40:49.564Z,1004.91
2018-08-24T07:41:49.636Z,1004.91
2018-08-24T07:42:49.545Z,1004.94
2018-08-24T07:43:49.514Z,1004.95
2018-08-24T07:44:49.515Z,1004.95
2018-08-24T07:45:49.504Z,1005.00
2018-08-24T07:46:49.472Z,1004.98
2018-08-24T07:47:49.455Z,1004.98
2018-08-24T07:48:49.440Z,1004.98
2018-08-24T07:49:49.427Z,1005.00
2018-08-24T07:50:49.483Z,1005.00
2018-08-24T07:51:49.407Z,1005.03
2018-08-24T07:52:49.385Z,1005.02
2018-08-24T07:53:49.469Z,1005.05
2018-08-24T07:54:49.355Z,1005.06
2018-08-24T07:55:49.345Z,1005.10
2018-08-24T07:56:49.339Z,1005.08
2018-08-24T07:57:49.311Z,1005.12
2018-08-24T07:58:49.314Z,1005.15
2018-08-24T07:59:49.282Z,1005.17
2018-08-24T08:00:49.282Z,1005.12
2018-08-24T08:01:49.257Z,1005.13
2018-08-24T08:02:49.246Z,1005.13
2018-08-24T08:03:49.237Z,1005.17
2018-08-24T08:04:49.216Z,1005.21
2018-08-24T08:05:49.194Z,1005.21
2018-08-24T08:06:49.184Z,1005.30
2018-08-24T08:07:49.167Z,1005.27
2018-08-24T08:08:49.152Z,1005.27
2018-08-24T08:09:49.138Z,1005.30
2018-08-24T08:10:49.124Z,1005.31
2018-08-24T08:11:49.260Z,1005.34
2018-08-24T08:12:49.091Z,1005.30
2018-08-24T08:13:49.079Z,1005.30
2018-08-24T08:14:49.064Z,1005.29
2018-08-24T08:15:49.048Z,1005.32
2018-08-24T08:16:49.036Z,1005.35
2018-08-24T08:17:49.026Z,1005.40
2018-08-24T08:18:49.005Z,1005.45
2018-08-24T08:19:48.990Z,1005.45
2018-08-24T08:20:48.977Z,1005.39
2018-08-24T08:21:48.968Z,1005.44
2018-08-24T08:22:48.963Z,1005.44
2018-08-24T08:23:48.945Z,1005.41
2018-08-24T08:24:49.069Z,1005.49
2018-08-24T08:25:48.910Z,1005.46
2018-08-24T08:26:48.889Z,1005.53
2018-08-24T08:27:48.875Z,1005.55
2018-08-24T08:28:48.860Z,1005.56
2018-08-24T08:29:48.863Z,1005.51
2018-08-24T08:30:48.847Z,1005.50
2018-08-24T08:31:48.818Z,1005.55
2018-08-24T08:32:48.805Z,1005.59
2018-08-24T08:33:48.795Z,1005.69
2018-08-24T08:34:48.779Z,1005.64
2018-08-24T08:35:48.767Z,1005.69
2018-08-24T08:36:48.750Z,1005.70
2018-08-24T08:37:48.734Z,1005.64
2018-08-24T08:38:48.735Z,1005.68
2018-08-24T08:39:48.712Z,1005.80
2018-08-24T08:40:48.694Z,1005.75
2018-08-24T08:41:48.687Z,1005.77
2018-08-24T08:42:48.666Z,1005.79
2018-08-24T08:43:48.654Z,1005.82
2018-08-24T08:44:48.647Z,1005.91
2018-08-24T08:45:48.628Z,1005.96
2018-08-24T08:46:48.741Z,1006.01
2018-08-24T08:47:48.600Z,1005.99
2018-08-24T08:48:48.584Z,1005.98
2018-08-24T08:49:48.626Z,1005.99
2018-08-24T08:50:48.560Z,1005.98
2018-08-24T08:51:48.544Z,1005.96
2018-08-24T08:52:48.531Z,1005.99
2018-08-24T08:53:48.517Z,1005.97
2018-08-24T08:54:48.505Z,1006.01
2018-08-24T08:55:48.491Z,1006.00
2018-08-24T08:56:48.486Z,1005.96
2018-08-24T08:57:48.476Z,1006.04
2018-08-24T08:58:48.453Z,1006.07
2018-08-24T08:59:48.446Z,1006.10
2018-08-24T09:00:48.427Z,1006.08
2018-08-24T09:01:48.413Z,1006.11
2018-08-24T09:02:48.482Z,1006.11
2018-08-24T09:03:48.388Z,1006.13
2018-08-24T09:04:48.376Z,1006.14
2018-08-24T09:05:48.371Z,1006.10
2018-08-24T09:06:48.352Z,1006.14
2018-08-24T09:07:48.343Z,1006.09
2018-08-24T09:08:48.325Z,1006.16
2018-08-24T09:09:48.321Z,1006.10
2018-08-24T09:10:48.321Z,1006.14
2018-08-24T09:11:48.291Z,1006.17
2018-08-24T09:12:48.313Z,1006.19
2018-08-24T09:13:48.264Z,1006.18
2018-08-24T09:14:48.253Z,1006.20
2018-08-24T09:15:48.243Z,1006.23
2018-08-24T09:16:48.231Z,1006.27
2018-08-24T09:17:48.220Z,1006.24
2018-08-24T09:18:48.207Z,1006.22
2018-08-24T09:19:48.201Z,1006.21
2018-08-24T09:20:48.186Z,1006.25
2018-08-24T09:21:48.175Z,1006.37
2018-08-24T09:22:48.162Z,1006.26
2018-08-24T09:23:48.229Z,1006.26
2018-08-24T09:24:48.139Z,1006.31
2018-08-24T09:25:48.215Z,1006.19
2018-08-24T09:26:48.115Z,1006.23
2018-08-24T09:27:48.114Z,1006.22
2018-08-24T09:28:48.097Z,1006.18
2018-08-24T09:29:48.085Z,1006.24
2018-08-24T09:30:48.070Z,1006.26
2018-08-24T09:31:48.069Z,1006.23
2018-08-24T09:32:48.088Z,1006.16
2018-08-24T09:33:48.034Z,1006.22
2018-08-24T09:34:48.026Z,1006.22
2018-08-24T09:35:48.016Z,1006.20
2018-08-24T09:36:48.001Z,1006.21
2018-08-24T09:37:47.990Z,1006.19
2018-08-24T09:38:47.980Z,1006.28
2018-08-24T09:39:47.967Z,1006.26
2018-08-24T09:40:47.954Z,1006.29
2018-08-24T09:41:47.948Z,1006.27
2018-08-24T09:42:47.934Z,1006.61
2018-08-24T09:43:47.924Z,1006.60
2018-08-24T09:44:47.912Z,1006.46
2018-08-24T09:45:47.900Z,1006.61
2018-08-24T09:46:47.888Z,1006.63
2018-08-24T09:47:47.879Z,1006.61
2018-08-24T09:48:47.870Z,1006.69
2018-08-24T09:49:48.665Z,1006.55
2018-08-24T09:50:47.850Z,1006.68
2018-08-24T09:51:47.836Z,1006.65
2018-08-24T09:52:47.834Z,1006.66
2018-08-24T09:53:47.819Z,1006.73
2018-08-24T09:54:47.809Z,1006.77
2018-08-24T09:55:47.926Z,1006.78
2018-08-24T09:56:47.840Z,1006.77
2018-08-24T09:57:47.786Z,1006.35
2018-08-24T09:58:47.784Z,1006.65
2018-08-24T09:59:47.772Z,1006.67
2018-08-24T10:00:47.760Z,1006.70
2018-08-24T10:01:47.758Z,1006.65
2018-08-24T10:02:47.762Z,1006.65
2018-08-24T10:03:47.743Z,1006.63
2018-08-24T10:04:47.748Z,1006.64
2018-08-24T10:05:47.732Z,1006.62
2018-08-24T10:06:47.761Z,1006.33
2018-08-24T10:08:31.922Z,1006.44
2018-08-24T10:09:31.914Z,1006.71
2018-08-24T10:10:31.916Z,1006.37
2018-08-24T10:11:31.906Z,1006.39
2018-08-24T10:12:31.934Z,1006.36
2018-08-24T10:14:31.057Z,1006.36
2018-08-24T10:16:04.264Z,1006.33
2018-08-24T10:16:31.052Z,1006.34
2018-08-24T10:17:31.042Z,1006.28
2018-08-24T10:18:31.036Z,1006.58
2018-08-24T10:19:31.038Z,1006.35
2018-08-24T10:20:31.035Z,1006.33
2018-08-24T10:21:31.133Z,1006.68
2018-08-24T10:22:31.010Z,1006.72
2018-08-24T10:23:31.010Z,1006.70
2018-08-24T10:24:31.001Z,1006.65
2018-08-24T10:25:30.990Z,1006.35
2018-08-24T10:26:30.995Z,1006.68
2018-08-24T10:27:31.004Z,1006.64
2018-08-24T10:28:30.979Z,1006.71
2018-08-24T10:29:31.184Z,1006.67
2018-08-24T10:30:30.971Z,1006.64
2018-08-24T10:31:30.957Z,1006.57
2018-08-24T10:32:30.960Z,1006.59
2018-08-24T10:33:30.949Z,1006.60
2018-08-24T10:34:30.954Z,1006.62
2018-08-24T10:35:30.950Z,1006.61
2018-08-24T10:36:30.938Z,1006.63
2018-08-24T10:37:30.946Z,1006.63
2018-08-24T10:38:30.929Z,1006.63
2018-08-24T10:39:30.925Z,1006.65
2018-08-24T10:40:30.939Z,1006.64
2018-08-24T10:41:30.921Z,1006.63
2018-08-24T10:42:30.925Z,1006.71
2018-08-24T10:43:30.916Z,1006.64
2018-08-24T10:44:30.914Z,1006.64
2018-08-24T10:45:30.972Z,1006.60
2018-08-24T10:46:30.911Z,1006.66
2018-08-24T10:47:30.910Z,1006.61
2018-08-24T10:48:30.908Z,1006.65
2018-08-24T10:49:31.025Z,1006.63
2018-08-24T10:50:30.936Z,1006.64
2018-08-24T10:51:30.906Z,1006.66
2018-08-24T10:52:30.911Z,1006.59
2018-08-24T10:53:30.903Z,1006.64
2018-08-24T10:54:30.903Z,1006.72
2018-08-24T10:55:30.912Z,1006.72
2018-08-24T10:56:30.909Z,1006.78
2018-08-24T10:57:30.902Z,1006.68
2018-08-24T10:58:30.968Z,1006.69
2018-08-24T10:59:30.908Z,1006.73
2018-08-24T11:00:30.902Z,1006.70
2018-08-24T11:01:30.905Z,1006.65
2018-08-24T11:02:30.914Z,1006.69
2018-08-24T11:03:30.923Z,1006.71
2018-08-24T11:04:30.907Z,1006.81
2018-08-24T11:05:30.988Z,1006.69
2018-08-24T11:06:30.921Z,1006.54
2018-08-24T11:07:30.959Z,1006.77
2018-08-24T11:08:30.906Z,1006.50
2018-08-24T11:09:30.908Z,1006.59
2018-08-24T11:10:30.913Z,1006.87
2018-08-24T11:11:30.910Z,1006.47
2018-08-24T11:12:30.911Z,1006.48
2018-08-24T11:13:30.908Z,1006.80
2018-08-24T11:14:30.916Z,1006.61
2018-08-24T11:15:30.908Z,1006.93
2018-08-24T11:16:30.908Z,1006.95
2018-08-24T11:17:30.911Z,1006.94
2018-08-24T11:18:30.918Z,1006.44
2018-08-24T11:19:30.908Z,1006.61
2018-08-24T11:20:30.914Z,1006.68
2018-08-24T11:21:30.908Z,1007.07
2018-08-24T11:22:30.906Z,1007.07
2018-08-24T11:23:30.906Z,1007.17
2018-08-24T11:24:30.911Z,1007.13
2018-08-24T11:25:30.919Z,1007.25
2018-08-24T11:26:30.905Z,1006.46
2018-08-24T11:27:30.930Z,1006.41
2018-08-24T11:28:30.927Z,1007.33
2018-08-24T11:29:30.906Z,1006.52
2018-08-24T11:30:30.904Z,1006.61
2018-08-24T11:31:30.899Z,1006.53
2018-08-24T11:32:30.952Z,1006.45
2018-08-24T11:33:30.897Z,1007.38
2018-08-24T11:34:30.927Z,1006.45
2018-08-24T11:35:30.891Z,1006.42
2018-08-24T11:36:30.890Z,1006.52
2018-08-24T11:37:30.884Z,1007.38
2018-08-24T11:38:30.881Z,1007.39
2018-08-24T11:39:30.880Z,1007.48
2018-08-24T11:40:30.873Z,1006.76
2018-08-24T11:41:30.871Z,1007.50
2018-08-24T11:42:30.870Z,1007.39
2018-08-24T11:43:30.865Z,1006.96
2018-08-24T11:44:30.864Z,1006.64
2018-08-24T11:45:30.858Z,1006.50
2018-08-24T11:46:30.863Z,1007.53
2018-08-24T11:47:30.854Z,1006.95
2018-08-24T11:48:30.846Z,1006.62
2018-08-24T11:49:30.852Z,1007.18
2018-08-24T11:50:30.838Z,1006.50
2018-08-24T11:51:30.838Z,1006.54
2018-08-24T11:52:30.837Z,1006.58
2018-08-24T11:53:30.837Z,1006.51
2018-08-24T11:54:30.879Z,1006.54
2018-08-24T11:55:30.812Z,1006.49
2018-08-24T11:56:30.808Z,1006.52
2018-08-24T11:57:33.828Z,1006.53
2018-08-24T11:58:30.807Z,1006.45
2018-08-24T11:59:30.797Z,1006.52
2018-08-24T12:00:30.784Z,1006.50
2018-08-24T12:01:30.778Z,1006.52
2018-08-24T12:02:30.771Z,1006.49
2018-08-24T12:03:30.771Z,1006.50
2018-08-24T12:04:30.757Z,1006.39
2018-08-24T12:05:30.759Z,1006.41
2018-08-24T12:06:30.746Z,1006.30
2018-08-24T12:07:30.748Z,1006.30